sensor_id;sensor_type;location;lat;lon;timestamp;pressure;altitude;pressure_sealevel;temperature;humidity
85000;BME280;75320;51.608;7.952;2024-03-08T00:01:22;101339.19;;;1.78;77.89
85000;BME280;75320;51.608;7.952;2024-03-08T00:03:48;101328.88;;;1.77;77.29
85000;BME280;75320;51.608;7.952;2024-03-08T00:06:13;101292.78;;;1.47;77.93
85000;BME280;75320;51.608;7.952;2024-03-08T00:08:39;101323.19;;;1.72;77.82
85000;BME280;75320;51.608;7.952;2024-03-08T00:11:04;101309.34;;;1.59;78.13
85000;BME280;75320;51.608;7.952;2024-03-08T00:13:31;101316.94;;;1.87;76.99
85000;BME280;75320;51.608;7.952;2024-03-08T00:15:56;101320.88;;;1.80;77.19
85000;BME280;75320;51.608;7.952;2024-03-08T00:18:22;101316.00;;;1.75;77.87
85000;BME280;75320;51.608;7.952;2024-03-08T00:20:48;101281.84;;;1.42;78.21
85000;BME280;75320;51.608;7.952;2024-03-08T00:23:13;101315.03;;;1.64;78.52
85000;BME280;75320;51.608;7.952;2024-03-08T00:25:41;101321.91;;;1.65;78.02
85000;BME280;75320;51.608;7.952;2024-03-08T00:28:06;101322.94;;;1.62;77.87
85000;BME280;75320;51.608;7.952;2024-03-08T00:30:34;101319.63;;;1.60;77.99
85000;BME280;75320;51.608;7.952;2024-03-08T00:33:00;101318.16;;;1.56;77.74
85000;BME280;75320;51.608;7.952;2024-03-08T00:35:31;101326.28;;;1.64;77.86
85000;BME280;75320;51.608;7.952;2024-03-08T00:37:57;101312.34;;;1.65;77.42
85000;BME280;75320;51.608;7.952;2024-03-08T00:40:22;101320.22;;;1.64;77.80
85000;BME280;75320;51.608;7.952;2024-03-08T00:42:48;101314.19;;;1.50;78.83
85000;BME280;75320;51.608;7.952;2024-03-08T00:45:14;101313.47;;;1.48;79.06
85000;BME280;75320;51.608;7.952;2024-03-08T00:47:40;101308.78;;;1.41;79.36
85000;BME280;75320;51.608;7.952;2024-03-08T00:50:07;101307.03;;;1.41;79.22
85000;BME280;75320;51.608;7.952;2024-03-08T00:52:33;101315.13;;;1.49;78.88
85000;BME280;75320;51.608;7.952;2024-03-08T00:55:01;101299.25;;;1.54;77.95
85000;BME280;75320;51.608;7.952;2024-03-08T00:57:26;101302.56;;;1.56;78.35
85000;BME280;75320;51.608;7.952;2024-03-08T00:59:54;101300.16;;;1.53;78.99
85000;BME280;75320;51.608;7.952;2024-03-08T01:02:19;101302.03;;;1.51;78.35
85000;BME280;75320;51.608;7.952;2024-03-08T01:04:46;101278.03;;;1.35;78.86
85000;BME280;75320;51.608;7.952;2024-03-08T01:07:12;101293.63;;;1.47;77.90
85000;BME280;75320;51.608;7.952;2024-03-08T01:09:39;101292.47;;;1.39;79.07
85000;BME280;75320;51.608;7.952;2024-03-08T01:12:04;101281.84;;;1.42;78.99
85000;BME280;75320;51.608;7.952;2024-03-08T01:14:32;101278.22;;;1.32;79.07
85000;BME280;75320;51.608;7.952;2024-03-08T01:16:58;101278.44;;;1.41;79.02
85000;BME280;75320;51.608;7.952;2024-03-08T01:19:24;101251.81;;;1.25;78.79
85000;BME280;75320;51.608;7.952;2024-03-08T01:21:49;101268.25;;;1.38;78.53
85000;BME280;75320;51.608;7.952;2024-03-08T01:24:15;101268.56;;;1.34;79.20
85000;BME280;75320;51.608;7.952;2024-03-08T01:26:41;101261.19;;;1.28;79.14
85000;BME280;75320;51.608;7.952;2024-03-08T01:29:07;101248.19;;;1.28;78.67
85000;BME280;75320;51.608;7.952;2024-03-08T01:31:33;101254.97;;;1.43;77.98
85000;BME280;75320;51.608;7.952;2024-03-08T01:33:58;101264.63;;;1.41;78.15
85000;BME280;75320;51.608;7.952;2024-03-08T01:36:24;101252.13;;;1.33;78.47
85000;BME280;75320;51.608;7.952;2024-03-08T01:38:51;101257.44;;;1.32;79.32
85000;BME280;75320;51.608;7.952;2024-03-08T01:41:17;101236.13;;;1.14;79.44
85000;BME280;75320;51.608;7.952;2024-03-08T01:43:43;101252.03;;;1.22;79.66
85000;BME280;75320;51.608;7.952;2024-03-08T01:46:14;101251.72;;;1.27;79.24
85000;BME280;75320;51.608;7.952;2024-03-08T01:48:41;101235.91;;;1.17;79.27
85000;BME280;75320;51.608;7.952;2024-03-08T01:51:07;101235.31;;;1.26;79.28
85000;BME280;75320;51.608;7.952;2024-03-08T01:53:34;101225.53;;;1.17;79.26
85000;BME280;75320;51.608;7.952;2024-03-08T01:56:00;101230.31;;;1.23;78.73
85000;BME280;75320;51.608;7.952;2024-03-08T01:58:29;101226.25;;;1.07;80.23
85000;BME280;75320;51.608;7.952;2024-03-08T02:00:56;101224.38;;;1.09;80.01
85000;BME280;75320;51.608;7.952;2024-03-08T02:03:22;101205.25;;;1.10;79.79
85000;BME280;75320;51.608;7.952;2024-03-08T02:05:48;101210.25;;;1.13;79.67
85000;BME280;75320;51.608;7.952;2024-03-08T02:08:13;101205.91;;;1.13;79.91
85000;BME280;75320;51.608;7.952;2024-03-08T02:10:40;101215.53;;;0.99;80.72
85000;BME280;75320;51.608;7.952;2024-03-08T02:13:07;101205.69;;;1.04;80.37
85000;BME280;75320;51.608;7.952;2024-03-08T02:15:54;101211.69;;;1.04;79.90
85000;BME280;75320;51.608;7.952;2024-03-08T02:18:21;101197.59;;;1.08;79.77
85000;BME280;75320;51.608;7.952;2024-03-08T02:23:17;101194.66;;;1.00;80.07
85000;BME280;75320;51.608;7.952;2024-03-08T02:25:43;101155.34;;;0.67;80.21
85000;BME280;75320;51.608;7.952;2024-03-08T02:28:10;101166.09;;;0.88;79.59
85000;BME280;75320;51.608;7.952;2024-03-08T02:30:37;101183.69;;;0.97;79.46
85000;BME280;75320;51.608;7.952;2024-03-08T02:33:02;101177.22;;;0.90;80.50
85000;BME280;75320;51.608;7.952;2024-03-08T02:35:27;101182.28;;;0.91;80.76
85000;BME280;75320;51.608;7.952;2024-03-08T02:37:53;101185.19;;;0.87;80.36
85000;BME280;75320;51.608;7.952;2024-03-08T02:40:18;101173.34;;;0.83;80.33
85000;BME280;75320;51.608;7.952;2024-03-08T02:42:44;101163.78;;;0.70;81.11
85000;BME280;75320;51.608;7.952;2024-03-08T02:45:10;101167.72;;;0.76;80.06
85000;BME280;75320;51.608;7.952;2024-03-08T02:47:36;101175.03;;;0.84;80.90
85000;BME280;75320;51.608;7.952;2024-03-08T02:50:01;101171.91;;;0.78;81.00
85000;BME280;75320;51.608;7.952;2024-03-08T02:52:28;101173.22;;;0.71;81.41
85000;BME280;75320;51.608;7.952;2024-03-08T02:54:54;101168.25;;;0.68;81.39
85000;BME280;75320;51.608;7.952;2024-03-08T02:57:19;101174.59;;;0.77;81.29
85000;BME280;75320;51.608;7.952;2024-03-08T02:59:44;101176.34;;;0.76;80.55
85000;BME280;75320;51.608;7.952;2024-03-08T03:02:11;101165.44;;;0.71;81.27
85000;BME280;75320;51.608;7.952;2024-03-08T03:04:39;101157.16;;;0.79;80.20
85000;BME280;75320;51.608;7.952;2024-03-08T03:07:05;101166.16;;;0.73;81.07
85000;BME280;75320;51.608;7.952;2024-03-08T03:09:30;101162.53;;;0.76;80.96
85000;BME280;75320;51.608;7.952;2024-03-08T03:11:58;101137.81;;;0.58;81.53
85000;BME280;75320;51.608;7.952;2024-03-08T03:14:23;101146.34;;;0.72;80.95
85000;BME280;75320;51.608;7.952;2024-03-08T03:16:49;101152.69;;;0.68;81.67
85000;BME280;75320;51.608;7.952;2024-03-08T03:19:15;101141.16;;;0.60;81.08
85000;BME280;75320;51.608;7.952;2024-03-08T03:21:40;101150.09;;;0.68;80.97
85000;BME280;75320;51.608;7.952;2024-03-08T03:24:08;101137.31;;;0.65;81.31
85000;BME280;75320;51.608;7.952;2024-03-08T03:26:36;101140.53;;;0.69;80.91
85000;BME280;75320;51.608;7.952;2024-03-08T03:29:07;101133.97;;;0.63;81.32
85000;BME280;75320;51.608;7.952;2024-03-08T03:31:33;101133.38;;;0.72;80.64
85000;BME280;75320;51.608;7.952;2024-03-08T03:34:00;101137.84;;;0.70;81.00
85000;BME280;75320;51.608;7.952;2024-03-08T03:36:29;101129.72;;;0.62;81.77
85000;BME280;75320;51.608;7.952;2024-03-08T03:38:55;101126.75;;;0.68;81.47
85000;BME280;75320;51.608;7.952;2024-03-08T03:41:30;101120.59;;;0.69;81.22
85000;BME280;75320;51.608;7.952;2024-03-08T03:43:56;101119.66;;;0.58;82.22
85000;BME280;75320;51.608;7.952;2024-03-08T03:46:21;101121.94;;;0.62;81.37
85000;BME280;75320;51.608;7.952;2024-03-08T03:48:46;101120.41;;;0.60;81.75
85000;BME280;75320;51.608;7.952;2024-03-08T03:51:12;101116.75;;;0.62;81.52
85000;BME280;75320;51.608;7.952;2024-03-08T03:53:37;101110.75;;;0.62;81.81
85000;BME280;75320;51.608;7.952;2024-03-08T03:56:03;101112.69;;;0.58;81.87
85000;BME280;75320;51.608;7.952;2024-03-08T03:58:33;101120.47;;;0.58;81.51
85000;BME280;75320;51.608;7.952;2024-03-08T04:00:58;101116.31;;;0.56;81.92
85000;BME280;75320;51.608;7.952;2024-03-08T04:03:23;101113.00;;;0.54;81.74
85000;BME280;75320;51.608;7.952;2024-03-08T04:05:49;101109.59;;;0.66;81.24
85000;BME280;75320;51.608;7.952;2024-03-08T04:08:14;101107.00;;;0.66;80.77
85000;BME280;75320;51.608;7.952;2024-03-08T04:10:40;101099.66;;;0.60;81.13
85000;BME280;75320;51.608;7.952;2024-03-08T04:13:07;101092.88;;;0.57;81.38
85000;BME280;75320;51.608;7.952;2024-03-08T04:15:35;101100.88;;;0.54;81.58
85000;BME280;75320;51.608;7.952;2024-03-08T04:18:01;101089.22;;;0.47;82.28
85000;BME280;75320;51.608;7.952;2024-03-08T04:20:27;101096.50;;;0.55;82.06
85000;BME280;75320;51.608;7.952;2024-03-08T04:22:52;101093.91;;;0.42;82.34
85000;BME280;75320;51.608;7.952;2024-03-08T04:25:18;101086.44;;;0.50;81.55
85000;BME280;75320;51.608;7.952;2024-03-08T04:27:44;101085.59;;;0.50;82.17
85000;BME280;75320;51.608;7.952;2024-03-08T04:30:10;101087.91;;;0.54;81.94
85000;BME280;75320;51.608;7.952;2024-03-08T04:32:35;101041.59;;;0.23;82.03
85000;BME280;75320;51.608;7.952;2024-03-08T04:35:01;101091.31;;;0.42;82.37
85000;BME280;75320;51.608;7.952;2024-03-08T04:37:27;101095.53;;;0.43;81.92
85000;BME280;75320;51.608;7.952;2024-03-08T04:39:54;101086.84;;;0.44;82.16
85000;BME280;75320;51.608;7.952;2024-03-08T04:42:20;101079.06;;;0.44;81.54
85000;BME280;75320;51.608;7.952;2024-03-08T04:44:45;101083.66;;;0.53;81.36
85000;BME280;75320;51.608;7.952;2024-03-08T04:47:10;101074.09;;;0.54;80.98
85000;BME280;75320;51.608;7.952;2024-03-08T04:49:36;101063.91;;;0.38;81.64
85000;BME280;75320;51.608;7.952;2024-03-08T04:52:02;101069.84;;;0.40;81.73
85000;BME280;75320;51.608;7.952;2024-03-08T04:54:29;101069.84;;;0.40;81.79
85000;BME280;75320;51.608;7.952;2024-03-08T04:56:54;101075.94;;;0.39;81.87
85000;BME280;75320;51.608;7.952;2024-03-08T04:59:19;101048.34;;;0.26;82.18
85000;BME280;75320;51.608;7.952;2024-03-08T05:01:45;101072.28;;;0.29;82.25
85000;BME280;75320;51.608;7.952;2024-03-08T05:04:10;101045.94;;;0.23;82.35
85000;BME280;75320;51.608;7.952;2024-03-08T05:06:35;101067.72;;;0.33;82.09
85000;BME280;75320;51.608;7.952;2024-03-08T05:09:02;101062.13;;;0.26;82.92
85000;BME280;75320;51.608;7.952;2024-03-08T05:11:42;101045.31;;;0.19;82.46
85000;BME280;75320;51.608;7.952;2024-03-08T05:14:09;101056.84;;;0.28;82.25
85000;BME280;75320;51.608;7.952;2024-03-08T05:16:34;101053.19;;;0.30;82.35
85000;BME280;75320;51.608;7.952;2024-03-08T05:19:00;101036.41;;;0.23;82.43
85000;BME280;75320;51.608;7.952;2024-03-08T05:21:25;101056.56;;;0.32;82.31
85000;BME280;75320;51.608;7.952;2024-03-08T05:23:54;101051.88;;;0.37;81.48
85000;BME280;75320;51.608;7.952;2024-03-08T05:26:19;101031.63;;;0.17;81.77
85000;BME280;75320;51.608;7.952;2024-03-08T05:28:44;101053.41;;;0.27;82.40
85000;BME280;75320;51.608;7.952;2024-03-08T05:31:10;101060.53;;;0.24;82.58
85000;BME280;75320;51.608;7.952;2024-03-08T05:33:35;101059.19;;;0.18;82.94
85000;BME280;75320;51.608;7.952;2024-03-08T05:36:01;101058.88;;;0.10;83.26
85000;BME280;75320;51.608;7.952;2024-03-08T05:38:27;101062.91;;;0.14;83.03
85000;BME280;75320;51.608;7.952;2024-03-08T05:40:53;101051.59;;;0.15;83.64
85000;BME280;75320;51.608;7.952;2024-03-08T05:43:20;101053.69;;;0.10;83.11
85000;BME280;75320;51.608;7.952;2024-03-08T05:45:46;101043.50;;;0.07;83.34
85000;BME280;75320;51.608;7.952;2024-03-08T05:48:13;101045.91;;;0.10;83.27
85000;BME280;75320;51.608;7.952;2024-03-08T05:50:38;101039.41;;;0.17;83.02
85000;BME280;75320;51.608;7.952;2024-03-08T05:53:04;101042.28;;;0.13;83.13
85000;BME280;75320;51.608;7.952;2024-03-08T05:55:32;101013.75;;;0.00;83.15
85000;BME280;75320;51.608;7.952;2024-03-08T05:58:01;101049.84;;;0.16;82.37
85000;BME280;75320;51.608;7.952;2024-03-08T06:00:27;101039.81;;;0.24;82.57
85000;BME280;75320;51.608;7.952;2024-03-08T06:02:56;101024.78;;;0.16;82.37
85000;BME280;75320;51.608;7.952;2024-03-08T06:05:21;101054.69;;;0.34;81.69
85000;BME280;75320;51.608;7.952;2024-03-08T06:07:50;101048.13;;;0.29;82.10
85000;BME280;75320;51.608;7.952;2024-03-08T06:10:15;101040.88;;;0.21;82.03
85000;BME280;75320;51.608;7.952;2024-03-08T06:12:42;101058.38;;;0.30;82.53
85000;BME280;75320;51.608;7.952;2024-03-08T06:15:08;101054.28;;;0.40;81.08
85000;BME280;75320;51.608;7.952;2024-03-08T06:17:36;101053.31;;;0.41;81.33
85000;BME280;75320;51.608;7.952;2024-03-08T06:20:01;101051.38;;;0.57;80.97
85000;BME280;75320;51.608;7.952;2024-03-08T06:22:27;101054.19;;;0.79;80.58
85000;BME280;75320;51.608;7.952;2024-03-08T06:24:54;101050.53;;;0.95;80.13
85000;BME280;75320;51.608;7.952;2024-03-08T06:27:19;101056.56;;;1.08;79.34
85000;BME280;75320;51.608;7.952;2024-03-08T06:29:45;101063.00;;;1.15;79.90
85000;BME280;75320;51.608;7.952;2024-03-08T06:32:10;101051.84;;;1.38;78.00
85000;BME280;75320;51.608;7.952;2024-03-08T06:34:35;101052.97;;;1.46;77.67
85000;BME280;75320;51.608;7.952;2024-03-08T06:37:01;101043.03;;;1.64;76.60
85000;BME280;75320;51.608;7.952;2024-03-08T06:39:27;101019.06;;;1.61;76.42
85000;BME280;75320;51.608;7.952;2024-03-08T06:41:56;101047.13;;;1.79;75.68
85000;BME280;75320;51.608;7.952;2024-03-08T06:44:22;101030.03;;;2.11;75.31
85000;BME280;75320;51.608;7.952;2024-03-08T06:46:47;101039.25;;;2.15;73.96
85000;BME280;75320;51.608;7.952;2024-03-08T06:49:14;101033.22;;;2.15;74.62
85000;BME280;75320;51.608;7.952;2024-03-08T06:51:43;101011.34;;;2.52;73.97
85000;BME280;75320;51.608;7.952;2024-03-08T06:54:08;101035.72;;;2.51;73.13
85000;BME280;75320;51.608;7.952;2024-03-08T06:56:36;101036.69;;;2.61;72.69
85000;BME280;75320;51.608;7.952;2024-03-08T06:59:02;101038.25;;;2.75;72.46
85000;BME280;75320;51.608;7.952;2024-03-08T07:01:28;101036.09;;;2.80;71.46
85000;BME280;75320;51.608;7.952;2024-03-08T07:03:57;101035.53;;;2.98;71.93
85000;BME280;75320;51.608;7.952;2024-03-08T07:06:22;101022.16;;;2.92;71.35
85000;BME280;75320;51.608;7.952;2024-03-08T07:08:49;101033.97;;;3.29;71.08
85000;BME280;75320;51.608;7.952;2024-03-08T07:11:14;101036.34;;;3.54;69.09
85000;BME280;75320;51.608;7.952;2024-03-08T07:13:46;101038.81;;;3.34;69.63
85000;BME280;75320;51.608;7.952;2024-03-08T07:16:11;101031.47;;;3.50;69.44
85000;BME280;75320;51.608;7.952;2024-03-08T07:18:37;101018.69;;;3.36;69.37
85000;BME280;75320;51.608;7.952;2024-03-08T07:21:05;101037.53;;;3.28;70.48
85000;BME280;75320;51.608;7.952;2024-03-08T07:23:31;101041.22;;;3.37;69.39
85000;BME280;75320;51.608;7.952;2024-03-08T07:26:15;101007.56;;;3.23;70.31
85000;BME280;75320;51.608;7.952;2024-03-08T07:28:40;101032.19;;;3.52;69.78
85000;BME280;75320;51.608;7.952;2024-03-08T07:31:06;101027.16;;;3.71;68.49
85000;BME280;75320;51.608;7.952;2024-03-08T07:33:37;101032.94;;;3.74;69.13
85000;BME280;75320;51.608;7.952;2024-03-08T07:36:03;101023.53;;;3.94;68.59
85000;BME280;75320;51.608;7.952;2024-03-08T07:38:29;101009.56;;;4.16;67.23
85000;BME280;75320;51.608;7.952;2024-03-08T07:40:54;101015.72;;;4.15;67.04
85000;BME280;75320;51.608;7.952;2024-03-08T07:43:22;101024.34;;;3.95;68.00
85000;BME280;75320;51.608;7.952;2024-03-08T07:45:49;101024.78;;;3.68;69.29
85000;BME280;75320;51.608;7.952;2024-03-08T07:48:18;101006.28;;;3.17;71.05
85000;BME280;75320;51.608;7.952;2024-03-08T07:50:43;100999.19;;;2.97;71.68
85000;BME280;75320;51.608;7.952;2024-03-08T07:53:09;101024.16;;;2.99;72.72
85000;BME280;75320;51.608;7.952;2024-03-08T07:55:35;101018.72;;;2.80;72.58
85000;BME280;75320;51.608;7.952;2024-03-08T07:58:03;101021.81;;;2.85;72.97
85000;BME280;75320;51.608;7.952;2024-03-08T08:00:30;101016.81;;;2.82;72.30
85000;BME280;75320;51.608;7.952;2024-03-08T08:02:56;101010.69;;;2.83;72.50
85000;BME280;75320;51.608;7.952;2024-03-08T08:05:22;101015.97;;;2.82;73.60
85000;BME280;75320;51.608;7.952;2024-03-08T08:07:47;101006.63;;;2.79;72.39
85000;BME280;75320;51.608;7.952;2024-03-08T08:10:13;101014.09;;;2.95;73.14
85000;BME280;75320;51.608;7.952;2024-03-08T08:12:48;101009.13;;;3.03;72.99
85000;BME280;75320;51.608;7.952;2024-03-08T08:15:14;101008.19;;;3.15;71.70
85000;BME280;75320;51.608;7.952;2024-03-08T08:17:44;101003.78;;;3.27;72.25
85000;BME280;75320;51.608;7.952;2024-03-08T08:20:11;100994.41;;;3.35;72.19
85000;BME280;75320;51.608;7.952;2024-03-08T08:22:40;101000.94;;;3.41;71.70
85000;BME280;75320;51.608;7.952;2024-03-08T08:25:09;100999.41;;;3.27;71.11
85000;BME280;75320;51.608;7.952;2024-03-08T08:27:38;100963.28;;;3.11;71.42
85000;BME280;75320;51.608;7.952;2024-03-08T08:30:06;100989.78;;;3.39;71.01
85000;BME280;75320;51.608;7.952;2024-03-08T08:32:34;100990.66;;;3.71;71.42
85000;BME280;75320;51.608;7.952;2024-03-08T08:35:00;100987.00;;;3.62;71.52
85000;BME280;75320;51.608;7.952;2024-03-08T08:37:25;100982.63;;;3.63;70.92
85000;BME280;75320;51.608;7.952;2024-03-08T08:39:51;100989.13;;;3.68;71.02
85000;BME280;75320;51.608;7.952;2024-03-08T08:42:16;100982.03;;;3.59;71.75
85000;BME280;75320;51.608;7.952;2024-03-08T08:44:42;100963.53;;;3.94;71.62
85000;BME280;75320;51.608;7.952;2024-03-08T08:47:08;100963.47;;;4.05;71.07
85000;BME280;75320;51.608;7.952;2024-03-08T08:49:33;100968.00;;;4.03;70.12
85000;BME280;75320;51.608;7.952;2024-03-08T08:51:59;100958.25;;;4.05;72.09
85000;BME280;75320;51.608;7.952;2024-03-08T08:54:24;100949.88;;;4.22;70.01
85000;BME280;75320;51.608;7.952;2024-03-08T08:56:50;100949.88;;;4.22;70.20
85000;BME280;75320;51.608;7.952;2024-03-08T08:59:16;100948.56;;;4.17;68.87
85000;BME280;75320;51.608;7.952;2024-03-08T09:01:44;100944.56;;;4.13;70.35
85000;BME280;75320;51.608;7.952;2024-03-08T09:04:12;100957.56;;;4.24;68.98
85000;BME280;75320;51.608;7.952;2024-03-08T09:06:37;100947.75;;;4.37;69.34
85000;BME280;75320;51.608;7.952;2024-03-08T09:09:03;100939.28;;;4.44;68.33
85000;BME280;75320;51.608;7.952;2024-03-08T09:11:29;100938.16;;;4.47;70.15
85000;BME280;75320;51.608;7.952;2024-03-08T09:13:55;100921.97;;;4.43;69.56
85000;BME280;75320;51.608;7.952;2024-03-08T09:16:20;100920.28;;;4.73;68.77
85000;BME280;75320;51.608;7.952;2024-03-08T09:18:46;100905.91;;;4.48;70.71
85000;BME280;75320;51.608;7.952;2024-03-08T09:21:12;100918.66;;;4.72;68.69
85000;BME280;75320;51.608;7.952;2024-03-08T09:23:38;100901.16;;;4.62;68.56
85000;BME280;75320;51.608;7.952;2024-03-08T09:26:03;100898.53;;;4.62;68.16
85000;BME280;75320;51.608;7.952;2024-03-08T09:28:29;100908.75;;;4.75;69.21
85000;BME280;75320;51.608;7.952;2024-03-08T09:30:54;100886.38;;;4.82;68.21
85000;BME280;75320;51.608;7.952;2024-03-08T09:33:20;100889.81;;;4.92;68.20
85000;BME280;75320;51.608;7.952;2024-03-08T09:35:46;100842.13;;;4.90;68.54
85000;BME280;75320;51.608;7.952;2024-03-08T09:38:12;100874.06;;;5.13;70.43
85000;BME280;75320;51.608;7.952;2024-03-08T09:40:40;100884.66;;;5.21;68.25
85000;BME280;75320;51.608;7.952;2024-03-08T09:43:06;100886.84;;;5.06;68.75
85000;BME280;75320;51.608;7.952;2024-03-08T09:45:35;100868.00;;;5.12;67.70
85000;BME280;75320;51.608;7.952;2024-03-08T09:48:01;100859.19;;;5.13;67.52
85000;BME280;75320;51.608;7.952;2024-03-08T09:50:27;100859.63;;;5.37;68.11
85000;BME280;75320;51.608;7.952;2024-03-08T09:52:55;100846.56;;;5.47;67.29
85000;BME280;75320;51.608;7.952;2024-03-08T09:55:22;100833.34;;;5.58;68.09
85000;BME280;75320;51.608;7.952;2024-03-08T09:57:48;100828.63;;;6.27;65.41
85000;BME280;75320;51.608;7.952;2024-03-08T10:00:32;100836.06;;;6.86;63.28
85000;BME280;75320;51.608;7.952;2024-03-08T10:03:01;100827.63;;;6.92;62.90
85000;BME280;75320;51.608;7.952;2024-03-08T10:05:27;100818.44;;;7.23;62.11
85000;BME280;75320;51.608;7.952;2024-03-08T10:07:52;100825.31;;;7.42;61.46
85000;BME280;75320;51.608;7.952;2024-03-08T10:10:18;100810.06;;;7.45;61.48
85000;BME280;75320;51.608;7.952;2024-03-08T10:12:43;100803.72;;;7.73;60.94
85000;BME280;75320;51.608;7.952;2024-03-08T10:15:10;100809.50;;;7.77;61.38
85000;BME280;75320;51.608;7.952;2024-03-08T10:17:38;100817.94;;;7.63;60.36
85000;BME280;75320;51.608;7.952;2024-03-08T10:20:13;100790.25;;;7.68;60.31
85000;BME280;75320;51.608;7.952;2024-03-08T10:22:40;100784.88;;;8.04;59.67
85000;BME280;75320;51.608;7.952;2024-03-08T10:25:10;100789.16;;;8.05;59.21
85000;BME280;75320;51.608;7.952;2024-03-08T10:27:36;100778.94;;;7.94;59.94
85000;BME280;75320;51.608;7.952;2024-03-08T10:30:02;100773.41;;;8.30;59.95
85000;BME280;75320;51.608;7.952;2024-03-08T10:32:29;100757.97;;;8.35;58.84
85000;BME280;75320;51.608;7.952;2024-03-08T10:34:54;100779.53;;;8.55;57.38
85000;BME280;75320;51.608;7.952;2024-03-08T10:37:21;100775.97;;;8.72;58.61
85000;BME280;75320;51.608;7.952;2024-03-08T10:40:02;100752.03;;;8.25;57.75
85000;BME280;75320;51.608;7.952;2024-03-08T10:42:45;100755.66;;;8.90;60.31
85000;BME280;75320;51.608;7.952;2024-03-08T10:45:38;100751.22;;;9.07;58.29
85000;BME280;75320;51.608;7.952;2024-03-08T10:48:27;100753.50;;;8.78;57.58
85000;BME280;75320;51.608;7.952;2024-03-08T10:50:53;100746.56;;;8.77;57.01
85000;BME280;75320;51.608;7.952;2024-03-08T10:53:19;100742.31;;;8.76;56.76
85000;BME280;75320;51.608;7.952;2024-03-08T10:55:49;100746.41;;;8.70;58.32
85000;BME280;75320;51.608;7.952;2024-03-08T10:58:15;100733.00;;;8.31;59.34
85000;BME280;75320;51.608;7.952;2024-03-08T11:00:41;100731.13;;;8.66;59.50
85000;BME280;75320;51.608;7.952;2024-03-08T11:03:07;100725.22;;;8.22;57.56
85000;BME280;75320;51.608;7.952;2024-03-08T11:05:40;100740.88;;;8.31;58.11
85000;BME280;75320;51.608;7.952;2024-03-08T11:08:18;100725.53;;;8.61;57.61
85000;BME280;75320;51.608;7.952;2024-03-08T11:10:53;100737.47;;;8.39;54.69
85000;BME280;75320;51.608;7.952;2024-03-08T11:13:41;100717.47;;;8.46;57.33
85000;BME280;75320;51.608;7.952;2024-03-08T11:16:13;100722.53;;;8.39;54.68
85000;BME280;75320;51.608;7.952;2024-03-08T11:19:23;100724.50;;;8.45;55.84
85000;BME280;75320;51.608;7.952;2024-03-08T11:21:57;100731.75;;;8.52;54.84
85000;BME280;75320;51.608;7.952;2024-03-08T11:24:23;100729.78;;;8.45;56.71
85000;BME280;75320;51.608;7.952;2024-03-08T11:26:49;100711.09;;;8.65;54.63
85000;BME280;75320;51.608;7.952;2024-03-08T11:32:17;100698.59;;;8.67;54.46
85000;BME280;75320;51.608;7.952;2024-03-08T11:34:48;100720.41;;;8.43;55.70
85000;BME280;75320;51.608;7.952;2024-03-08T11:37:16;100715.16;;;8.51;53.30
85000;BME280;75320;51.608;7.952;2024-03-08T11:39:50;100695.81;;;8.68;54.98
85000;BME280;75320;51.608;7.952;2024-03-08T11:42:17;100687.59;;;8.87;57.96
85000;BME280;75320;51.608;7.952;2024-03-08T11:44:44;100698.78;;;8.65;55.20
85000;BME280;75320;51.608;7.952;2024-03-08T11:47:10;100677.91;;;8.72;56.41
85000;BME280;75320;51.608;7.952;2024-03-08T11:49:36;100678.06;;;8.54;54.08
85000;BME280;75320;51.608;7.952;2024-03-08T11:52:02;100673.16;;;8.67;55.57
85000;BME280;75320;51.608;7.952;2024-03-08T11:54:28;100656.06;;;8.63;57.29
85000;BME280;75320;51.608;7.952;2024-03-08T11:56:56;100679.03;;;8.53;56.34
85000;BME280;75320;51.608;7.952;2024-03-08T11:59:28;100661.63;;;8.68;56.38
85000;BME280;75320;51.608;7.952;2024-03-08T12:02:02;100677.56;;;8.59;55.59
85000;BME280;75320;51.608;7.952;2024-03-08T12:04:28;100672.47;;;8.81;55.80
85000;BME280;75320;51.608;7.952;2024-03-08T12:06:54;100665.91;;;8.85;56.73
85000;BME280;75320;51.608;7.952;2024-03-08T12:09:19;100650.63;;;8.73;55.13
85000;BME280;75320;51.608;7.952;2024-03-08T12:11:48;100631.25;;;8.66;56.01
85000;BME280;75320;51.608;7.952;2024-03-08T12:14:14;100654.06;;;9.05;55.84
85000;BME280;75320;51.608;7.952;2024-03-08T12:16:39;100659.34;;;8.81;55.49
85000;BME280;75320;51.608;7.952;2024-03-08T12:19:09;100638.13;;;8.83;57.21
85000;BME280;75320;51.608;7.952;2024-03-08T12:21:35;100630.59;;;8.88;54.95
85000;BME280;75320;51.608;7.952;2024-03-08T12:24:08;100664.41;;;9.31;56.52
85000;BME280;75320;51.608;7.952;2024-03-08T12:26:36;100626.97;;;8.89;55.85
85000;BME280;75320;51.608;7.952;2024-03-08T12:31:48;100609.69;;;9.10;54.52
85000;BME280;75320;51.608;7.952;2024-03-08T12:34:16;100613.81;;;8.97;55.47
85000;BME280;75320;51.608;7.952;2024-03-08T12:36:50;100600.75;;;9.36;54.69
85000;BME280;75320;51.608;7.952;2024-03-08T12:39:18;100603.41;;;9.19;55.61
85000;BME280;75320;51.608;7.952;2024-03-08T12:41:48;100601.94;;;9.25;56.09
85000;BME280;75320;51.608;7.952;2024-03-08T12:44:17;100561.28;;;8.65;55.37
85000;BME280;75320;51.608;7.952;2024-03-08T12:46:44;100596.38;;;9.12;55.10
85000;BME280;75320;51.608;7.952;2024-03-08T12:49:10;100590.00;;;8.90;56.23
85000;BME280;75320;51.608;7.952;2024-03-08T12:51:35;100579.97;;;9.02;55.28
85000;BME280;75320;51.608;7.952;2024-03-08T12:54:02;100573.38;;;9.06;56.53
85000;BME280;75320;51.608;7.952;2024-03-08T12:56:32;100579.09;;;9.17;55.39
85000;BME280;75320;51.608;7.952;2024-03-08T12:58:59;100575.16;;;9.13;56.62
85000;BME280;75320;51.608;7.952;2024-03-08T13:01:25;100574.31;;;9.21;56.25
85000;BME280;75320;51.608;7.952;2024-03-08T13:03:52;100574.47;;;9.27;56.80
85000;BME280;75320;51.608;7.952;2024-03-08T13:06:18;100562.22;;;8.88;54.86
85000;BME280;75320;51.608;7.952;2024-03-08T13:08:44;100564.91;;;9.26;56.14